createdAt,value
2018-03-25T00:00:12.940Z,99.90
2018-03-25T00:00:47.376Z,99.90
2018-03-25T00:01:21.090Z,99.90
2018-03-25T00:01:54.776Z,99.90
2018-03-25T00:02:28.459Z,99.90
2018-03-25T00:03:02.154Z,99.90
2018-03-25T00:03:35.824Z,99.90
2018-03-25T00:04:09.502Z,99.90
2018-03-25T00:04:43.172Z,99.90
2018-03-25T00:05:17.716Z,99.90
2018-03-25T00:05:51.389Z,99.90
2018-03-25T00:06:25.854Z,99.90
2018-03-25T00:06:59.532Z,99.90
2018-03-25T00:07:33.250Z,99.90
2018-03-25T00:08:06.934Z,99.90
2018-03-25T00:08:40.623Z,99.90
2018-03-25T00:09:14.302Z,99.90
2018-03-25T00:09:48.014Z,99.90
2018-03-25T00:10:21.705Z,99.90
2018-03-25T00:10:55.230Z,99.90
2018-03-25T00:11:28.934Z,99.90
2018-03-25T00:12:02.602Z,99.90
2018-03-25T00:12:36.276Z,99.90
2018-03-25T00:13:10.727Z,99.90
2018-03-25T00:13:44.415Z,99.90
2018-03-25T00:14:18.100Z,99.90
2018-03-25T00:14:51.795Z,99.90
2018-03-25T00:15:25.474Z,99.90
2018-03-25T00:15:59.147Z,99.90
2018-03-25T00:16:33.150Z,99.90
2018-03-25T00:17:06.491Z,99.90
2018-03-25T00:17:40.964Z,99.90
2018-03-25T00:18:14.660Z,99.90
2018-03-25T00:18:48.353Z,99.90
2018-03-25T00:19:22.042Z,99.90
2018-03-25T00:19:55.724Z,99.90
2018-03-25T00:20:29.410Z,99.90
2018-03-25T00:21:03.076Z,99.90
2018-03-25T00:21:36.925Z,99.90
2018-03-25T00:22:10.622Z,99.90
2018-03-25T00:22:44.321Z,99.90
2018-03-25T00:23:18.778Z,99.90
2018-03-25T00:23:52.460Z,99.90
2018-03-25T00:24:26.137Z,99.90
2018-03-25T00:24:59.824Z,99.90
2018-03-25T00:25:33.170Z,99.90
2018-03-25T00:26:06.862Z,99.90
2018-03-25T00:26:40.896Z,99.90
2018-03-25T00:27:14.600Z,99.90
2018-03-25T00:27:48.344Z,99.90
2018-03-25T00:28:22.178Z,99.90
2018-03-25T00:28:55.875Z,99.90
2018-03-25T00:29:29.547Z,99.90
2018-03-25T00:30:03.231Z,99.90
2018-03-25T00:30:36.963Z,99.90
2018-03-25T00:31:10.656Z,99.90
2018-03-25T00:31:44.383Z,99.90
2018-03-25T00:32:18.817Z,99.90
2018-03-25T00:32:52.502Z,99.90
2018-03-25T00:33:26.198Z,99.90
2018-03-25T00:33:59.880Z,99.90
2018-03-25T00:34:33.587Z,99.90
2018-03-25T00:35:06.944Z,99.90
2018-03-25T00:35:41.391Z,99.90
2018-03-25T00:36:15.110Z,99.90
2018-03-25T00:36:48.822Z,99.90
2018-03-25T00:37:23.268Z,99.90
2018-03-25T00:37:56.966Z,99.90
2018-03-25T00:38:30.632Z,99.90
2018-03-25T00:39:03.451Z,99.90
2018-03-25T00:39:37.122Z,99.90
2018-03-25T00:40:10.807Z,99.90
2018-03-25T00:40:44.494Z,99.90
2018-03-25T00:41:18.170Z,99.90
2018-03-25T00:41:52.235Z,99.90
2018-03-25T00:42:26.703Z,99.90
2018-03-25T00:43:00.570Z,99.90
2018-03-25T00:43:34.261Z,99.90
2018-03-25T00:44:07.950Z,99.90
2018-03-25T00:44:41.616Z,99.90
2018-03-25T00:45:16.098Z,99.90
2018-03-25T00:45:49.800Z,99.90
2018-03-25T00:46:24.251Z,99.90
2018-03-25T00:46:57.998Z,99.90
2018-03-25T00:47:33.382Z,99.90
2018-03-25T00:48:07.072Z,99.90
2018-03-25T00:48:40.756Z,99.90
2018-03-25T00:49:14.457Z,99.90
2018-03-25T00:49:48.130Z,99.90
2018-03-25T00:50:21.819Z,99.90
2018-03-25T00:50:55.511Z,99.90
2018-03-25T00:51:29.206Z,99.90
2018-03-25T00:52:02.899Z,99.90
2018-03-25T00:52:36.582Z,99.90
2018-03-25T00:53:10.271Z,99.90
2018-03-25T00:53:43.946Z,99.90
2018-03-25T00:54:17.660Z,99.90
2018-03-25T00:54:51.342Z,99.90
2018-03-25T00:55:25.026Z,99.90
2018-03-25T00:55:58.704Z,99.90
2018-03-25T00:56:32.404Z,99.90
2018-03-25T00:57:06.134Z,99.90
2018-03-25T00:57:39.824Z,99.90
2018-03-25T00:58:13.308Z,99.90
2018-03-25T00:58:46.798Z,99.90
2018-03-25T00:59:20.472Z,99.90
2018-03-25T00:59:54.148Z,99.90
2018-03-25T01:00:27.836Z,99.90
2018-03-25T01:01:01.005Z,99.90
2018-03-25T01:01:34.346Z,99.90
2018-03-25T01:02:07.704Z,99.90
2018-03-25T01:02:41.382Z,99.90
2018-03-25T01:03:15.058Z,99.90
2018-03-25T01:03:48.734Z,99.90
2018-03-25T01:04:22.422Z,99.90
2018-03-25T01:04:56.114Z,99.90
2018-03-25T01:05:29.803Z,99.90
2018-03-25T01:06:03.480Z,99.90
2018-03-25T01:06:37.228Z,99.90
2018-03-25T01:07:11.984Z,99.90
2018-03-25T01:07:45.706Z,99.90
2018-03-25T01:08:19.047Z,99.90
2018-03-25T01:08:53.154Z,99.90
2018-03-25T01:09:26.860Z,99.90
2018-03-25T01:10:00.533Z,99.90
2018-03-25T01:10:34.210Z,99.90
2018-03-25T01:11:08.324Z,99.90
2018-03-25T01:11:42.010Z,99.90
2018-03-25T01:12:15.718Z,99.90
2018-03-25T01:12:49.414Z,99.90
2018-03-25T01:13:23.100Z,99.90
2018-03-25T01:13:56.789Z,99.90
2018-03-25T01:14:30.481Z,99.90
2018-03-25T01:15:03.502Z,99.90
2018-03-25T01:15:48.406Z,99.90
2018-03-25T01:16:21.754Z,99.90
2018-03-25T01:16:56.200Z,99.90
2018-03-25T01:17:29.914Z,99.90
2018-03-25T01:18:03.618Z,99.90
2018-03-25T01:18:37.314Z,99.90
2018-03-25T01:19:10.989Z,99.90
2018-03-25T01:19:44.658Z,99.90
2018-03-25T01:20:18.324Z,99.90
2018-03-25T01:20:51.699Z,99.90
2018-03-25T01:21:25.386Z,99.90
2018-03-25T01:21:59.835Z,99.90
2018-03-25T01:22:33.542Z,99.90
2018-03-25T01:23:07.221Z,99.90
2018-03-25T01:23:40.942Z,99.90
2018-03-25T01:24:15.394Z,99.90
2018-03-25T01:24:49.078Z,99.90
2018-03-25T01:25:22.754Z,99.90
2018-03-25T01:25:56.436Z,99.90
2018-03-25T01:26:30.889Z,99.90
2018-03-25T01:27:04.570Z,99.90
2018-03-25T01:27:38.275Z,99.90
2018-03-25T01:28:11.952Z,99.90
2018-03-25T01:28:45.624Z,99.90
2018-03-25T01:29:19.316Z,99.90
2018-03-25T01:29:53.001Z,99.90
2018-03-25T01:30:26.696Z,99.90
2018-03-25T01:31:00.376Z,99.90
2018-03-25T01:31:34.072Z,99.90
2018-03-25T01:32:07.762Z,99.90
2018-03-25T01:32:41.474Z,99.90
2018-03-25T01:33:15.160Z,99.90
2018-03-25T01:33:48.833Z,99.90
2018-03-25T01:34:22.527Z,99.90
2018-03-25T01:34:56.210Z,99.90
2018-03-25T01:35:29.891Z,99.90
2018-03-25T01:36:03.237Z,99.90
2018-03-25T01:36:36.914Z,99.90
2018-03-25T01:37:10.584Z,99.90
2018-03-25T01:37:44.322Z,99.90
2018-03-25T01:38:18.778Z,99.90
2018-03-25T01:38:52.479Z,99.90
2018-03-25T01:39:26.171Z,99.90
2018-03-25T01:39:59.852Z,99.90
2018-03-25T01:40:33.532Z,99.90
2018-03-25T01:41:07.183Z,99.90
2018-03-25T01:41:41.638Z,99.90
2018-03-25T01:42:15.314Z,99.90
2018-03-25T01:42:49.291Z,99.90
2018-03-25T01:43:23.389Z,99.90
2018-03-25T01:43:57.940Z,99.90
2018-03-25T01:44:31.645Z,99.90
2018-03-25T01:45:04.982Z,99.90
2018-03-25T01:45:38.665Z,99.90
2018-03-25T01:46:12.338Z,99.90
2018-03-25T01:46:46.772Z,99.90
2018-03-25T01:47:20.444Z,99.90
2018-03-25T01:47:54.936Z,99.90
2018-03-25T01:48:28.610Z,99.90
2018-03-25T01:49:02.282Z,99.90
2018-03-25T01:49:35.947Z,99.90
2018-03-25T01:50:09.628Z,99.90
2018-03-25T01:50:43.300Z,99.90
2018-03-25T01:51:17.901Z,99.90
2018-03-25T01:51:52.338Z,99.90
2018-03-25T01:52:26.027Z,99.90
2018-03-25T01:52:59.709Z,99.90
2018-03-25T01:53:33.403Z,99.90
2018-03-25T01:54:07.172Z,99.90
2018-03-25T01:54:41.624Z,99.90
2018-03-25T01:55:15.309Z,99.90
2018-03-25T01:55:48.983Z,99.90
2018-03-25T01:56:22.657Z,99.90
2018-03-25T01:56:57.100Z,99.90
2018-03-25T01:57:30.783Z,99.90
2018-03-25T01:58:04.471Z,99.90
2018-03-25T01:58:38.202Z,99.90
2018-03-25T01:59:11.876Z,99.90
2018-03-25T01:59:45.557Z,99.90
2018-03-25T02:00:19.249Z,99.90
2018-03-25T02:00:52.926Z,99.90
2018-03-25T02:01:26.610Z,99.90
2018-03-25T02:02:00.283Z,99.90
2018-03-25T02:02:33.977Z,99.90
2018-03-25T02:03:07.683Z,99.90
2018-03-25T02:03:41.384Z,99.90
2018-03-25T02:04:15.058Z,99.90
2018-03-25T02:04:48.732Z,99.90
2018-03-25T02:05:22.404Z,99.90
2018-03-25T02:05:56.852Z,99.90
2018-03-25T02:06:30.544Z,99.90
2018-03-25T02:07:03.883Z,99.90
2018-03-25T02:07:38.340Z,99.90
2018-03-25T02:08:12.552Z,99.90
2018-03-25T02:08:46.225Z,99.90
2018-03-25T02:09:19.924Z,99.90
2018-03-25T02:09:53.599Z,99.90
2018-03-25T02:10:27.276Z,99.90
2018-03-25T02:11:00.957Z,99.90
2018-03-25T02:11:34.729Z,99.90
2018-03-25T02:12:09.169Z,99.90
2018-03-25T02:12:42.834Z,99.90
2018-03-25T02:13:17.303Z,99.90
2018-03-25T02:13:50.976Z,99.90
2018-03-25T02:14:24.328Z,99.90
2018-03-25T02:14:58.101Z,99.90
2018-03-25T02:15:32.547Z,99.90
2018-03-25T02:16:06.223Z,99.90
2018-03-25T02:16:39.889Z,99.90
2018-03-25T02:17:14.332Z,99.90
2018-03-25T02:17:48.008Z,99.90
2018-03-25T02:18:22.026Z,99.90
2018-03-25T02:18:55.702Z,99.90
2018-03-25T02:19:29.376Z,99.90
2018-03-25T02:20:03.046Z,99.90
2018-03-25T02:20:37.485Z,99.90
2018-03-25T02:21:11.178Z,99.90
2018-03-25T02:21:44.849Z,99.90
2018-03-25T02:22:18.626Z,99.90
2018-03-25T02:22:53.080Z,99.90
2018-03-25T02:23:26.446Z,99.90
2018-03-25T02:24:00.113Z,99.90
2018-03-25T02:24:34.556Z,99.90
2018-03-25T02:25:08.234Z,99.90
2018-03-25T02:25:41.567Z,99.90
2018-03-25T02:26:15.230Z,99.90
2018-03-25T02:26:48.918Z,99.90
2018-03-25T02:27:22.611Z,99.90
2018-03-25T02:27:56.278Z,99.90
2018-03-25T02:28:30.012Z,99.90
2018-03-25T02:29:03.687Z,99.90
2018-03-25T02:29:37.377Z,99.90
2018-03-25T02:30:11.047Z,99.90
2018-03-25T02:30:44.717Z,99.90
2018-03-25T02:31:18.499Z,99.90
2018-03-25T02:31:52.955Z,99.90
2018-03-25T02:32:26.437Z,99.90
2018-03-25T02:33:00.103Z,99.90
2018-03-25T02:33:33.811Z,99.90
2018-03-25T02:34:07.489Z,99.90
2018-03-25T02:34:41.170Z,99.90
2018-03-25T02:35:14.850Z,99.90
2018-03-25T02:35:48.548Z,99.90
2018-03-25T02:36:22.223Z,99.90
2018-03-25T02:36:55.896Z,99.90
2018-03-25T02:37:30.344Z,99.90
2018-03-25T02:38:03.697Z,99.90
2018-03-25T02:38:37.073Z,99.90
2018-03-25T02:39:11.822Z,99.90
2018-03-25T02:39:45.494Z,99.90
2018-03-25T02:40:18.860Z,99.90
2018-03-25T02:40:52.585Z,99.90
2018-03-25T02:41:26.261Z,99.90
2018-03-25T02:41:59.937Z,99.90
2018-03-25T02:42:34.374Z,99.90
2018-03-25T02:43:08.043Z,99.90
2018-03-25T02:43:41.742Z,99.90
2018-03-25T02:44:15.430Z,99.60
2018-03-25T02:44:49.117Z,99.60
2018-03-25T02:45:22.803Z,99.60
2018-03-25T02:45:56.485Z,99.90
2018-03-25T02:46:30.259Z,99.90
2018-03-25T02:47:04.703Z,99.90
2018-03-25T02:47:38.474Z,99.90
2018-03-25T02:48:12.152Z,99.90
2018-03-25T02:48:45.877Z,99.90
2018-03-25T02:49:19.582Z,99.90
2018-03-25T02:49:53.278Z,99.90
2018-03-25T02:50:26.963Z,99.90
2018-03-25T02:51:00.690Z,99.90
2018-03-25T02:51:35.164Z,99.90
2018-03-25T02:52:08.852Z,99.90
2018-03-25T02:52:42.548Z,99.90
2018-03-25T02:53:16.230Z,99.90
2018-03-25T02:53:49.946Z,99.90
2018-03-25T02:54:23.634Z,99.90
2018-03-25T02:54:57.300Z,99.90
2018-03-25T02:55:30.988Z,99.90
2018-03-25T02:56:04.335Z,99.90
2018-03-25T02:56:39.062Z,99.90
2018-03-25T02:57:12.739Z,99.90
2018-03-25T02:57:46.408Z,99.90
2018-03-25T02:58:21.729Z,99.90
2018-03-25T02:58:55.459Z,99.90
2018-03-25T02:59:30.078Z,99.90
2018-03-25T03:00:03.420Z,99.90
2018-03-25T03:00:38.023Z,99.90
2018-03-25T03:01:12.463Z,99.90
2018-03-25T03:01:45.959Z,99.90
2018-03-25T03:02:19.662Z,99.90
2018-03-25T03:02:53.336Z,99.90
2018-03-25T03:03:27.019Z,99.90
2018-03-25T03:04:00.753Z,99.90
2018-03-25T03:04:34.444Z,99.90
2018-03-25T03:05:08.131Z,99.90
2018-03-25T03:05:41.802Z,99.90
2018-03-25T03:06:15.484Z,99.90
2018-03-25T03:06:49.155Z,99.90
2018-03-25T03:07:22.848Z,99.90
2018-03-25T03:07:56.532Z,99.90
2018-03-25T03:08:30.215Z,99.90
2018-03-25T03:09:04.029Z,99.90
2018-03-25T03:09:37.704Z,99.90
2018-03-25T03:10:11.388Z,99.90
2018-03-25T03:10:45.886Z,99.90
2018-03-25T03:11:20.375Z,99.90
2018-03-25T03:11:54.048Z,99.90
2018-03-25T03:12:27.723Z,99.90
2018-03-25T03:13:01.402Z,99.90
2018-03-25T03:13:35.109Z,99.90
2018-03-25T03:14:08.475Z,99.90
2018-03-25T03:14:42.148Z,99.90
2018-03-25T03:15:15.817Z,99.90
2018-03-25T03:15:50.264Z,99.90
2018-03-25T03:16:23.934Z,99.90
2018-03-25T03:16:57.612Z,99.90
2018-03-25T03:17:32.048Z,99.90
2018-03-25T03:18:05.405Z,99.90
2018-03-25T03:18:39.106Z,99.90
2018-03-25T03:19:13.095Z,99.90
2018-03-25T03:19:46.779Z,99.90
2018-03-25T03:20:22.014Z,99.90
2018-03-25T03:20:56.460Z,99.90
2018-03-25T03:21:30.164Z,99.90
2018-03-25T03:22:03.513Z,99.90
2018-03-25T03:22:37.185Z,99.90
2018-03-25T03:23:10.846Z,99.90
2018-03-25T03:23:45.281Z,99.90
2018-03-25T03:24:19.106Z,99.90
2018-03-25T03:24:52.771Z,99.90
2018-03-25T03:25:26.447Z,99.90
2018-03-25T03:26:00.162Z,99.90
2018-03-25T03:26:33.845Z,99.90
2018-03-25T03:27:07.519Z,99.90
2018-03-25T03:27:41.203Z,99.90
2018-03-25T03:28:15.654Z,99.90
2018-03-25T03:28:49.342Z,99.90
2018-03-25T03:29:23.069Z,99.90
2018-03-25T03:29:57.519Z,99.90
2018-03-25T03:30:31.206Z,99.90
2018-03-25T03:31:04.903Z,99.90
2018-03-25T03:31:38.593Z,99.90
2018-03-25T03:32:13.202Z,99.90
2018-03-25T03:32:46.876Z,99.90
2018-03-25T03:33:20.578Z,99.90
2018-03-25T03:33:54.260Z,99.90
2018-03-25T03:34:28.248Z,99.90
2018-03-25T03:35:02.692Z,99.90
2018-03-25T03:35:36.359Z,99.90
2018-03-25T03:36:10.128Z,99.90
2018-03-25T03:36:44.586Z,99.90
2018-03-25T03:37:18.376Z,99.90
2018-03-25T03:37:52.048Z,99.90
2018-03-25T03:38:25.723Z,99.90
2018-03-25T03:38:59.837Z,99.90
2018-03-25T03:39:33.565Z,99.90
2018-03-25T03:40:07.266Z,99.90
2018-03-25T03:40:40.979Z,99.90
2018-03-25T03:41:15.432Z,99.90
2018-03-25T03:41:49.120Z,99.90
2018-03-25T03:42:22.799Z,99.90
2018-03-25T03:42:56.485Z,99.90
2018-03-25T03:43:30.174Z,99.90
2018-03-25T03:44:03.846Z,99.90
2018-03-25T03:44:37.553Z,99.90
2018-03-25T03:45:11.226Z,99.90
2018-03-25T03:45:44.901Z,99.90
2018-03-25T03:46:19.532Z,99.90
2018-03-25T03:46:53.206Z,99.90
2018-03-25T03:47:27.654Z,99.90
2018-03-25T03:48:01.332Z,99.90
2018-03-25T03:48:35.034Z,99.90
2018-03-25T03:49:08.728Z,99.90
2018-03-25T03:49:42.416Z,99.90
2018-03-25T03:50:16.105Z,99.90
2018-03-25T03:50:49.796Z,99.90
2018-03-25T03:51:23.481Z,99.90
2018-03-25T03:51:57.155Z,99.90
2018-03-25T03:52:30.838Z,99.90
2018-03-25T03:53:04.510Z,99.90
2018-03-25T03:53:39.008Z,99.90
2018-03-25T03:54:13.439Z,99.90
2018-03-25T03:54:47.128Z,99.90
2018-03-25T03:55:21.574Z,99.90
2018-03-25T03:55:55.264Z,99.90
2018-03-25T03:56:28.958Z,99.90
2018-03-25T03:57:02.640Z,99.90
2018-03-25T03:57:36.305Z,99.90
2018-03-25T03:58:09.989Z,99.90
2018-03-25T03:58:43.678Z,99.90
2018-03-25T03:59:17.388Z,99.90
2018-03-25T03:59:51.106Z,99.90
2018-03-25T04:00:24.796Z,99.90
2018-03-25T04:00:58.527Z,99.90
2018-03-25T04:01:32.978Z,99.90
2018-03-25T04:02:06.670Z,99.90
2018-03-25T04:02:40.392Z,99.90
2018-03-25T04:03:14.071Z,99.90
2018-03-25T04:03:47.752Z,99.90
2018-03-25T04:04:21.426Z,99.90
2018-03-25T04:04:55.138Z,99.90
2018-03-25T04:05:28.494Z,99.90
2018-03-25T04:06:02.176Z,99.90
2018-03-25T04:06:35.860Z,99.90
2018-03-25T04:07:09.559Z,99.90
2018-03-25T04:07:43.242Z,99.90
2018-03-25T04:08:16.932Z,99.90
2018-03-25T04:08:50.602Z,99.90
2018-03-25T04:09:25.044Z,99.90
2018-03-25T04:09:58.806Z,99.90
2018-03-25T04:10:32.498Z,99.90
2018-03-25T04:11:06.175Z,99.90
2018-03-25T04:11:40.626Z,99.90
2018-03-25T04:12:13.976Z,99.90
2018-03-25T04:12:47.650Z,99.90
2018-03-25T04:13:22.101Z,99.90
2018-03-25T04:13:55.796Z,99.90
2018-03-25T04:14:29.479Z,99.90
2018-03-25T04:15:03.169Z,99.90
2018-03-25T04:15:36.862Z,99.90
2018-03-25T04:16:10.550Z,99.90
2018-03-25T04:16:44.216Z,99.90
2018-03-25T04:17:17.909Z,99.90
2018-03-25T04:17:51.584Z,99.90
2018-03-25T04:18:26.032Z,99.90
2018-03-25T04:18:59.794Z,99.90
2018-03-25T04:19:33.498Z,99.90
2018-03-25T04:20:07.196Z,99.90
2018-03-25T04:20:40.575Z,99.90
2018-03-25T04:21:14.269Z,99.90
2018-03-25T04:21:47.964Z,99.90
2018-03-25T04:22:21.655Z,99.90
2018-03-25T04:22:55.334Z,99.90
2018-03-25T04:23:29.035Z,99.90
2018-03-25T04:24:02.699Z,99.90
2018-03-25T04:24:36.431Z,99.90
2018-03-25T04:25:10.128Z,99.90
2018-03-25T04:25:43.809Z,99.90
2018-03-25T04:26:17.476Z,99.90
2018-03-25T04:26:51.183Z,99.90
2018-03-25T04:27:24.872Z,99.90
2018-03-25T04:27:58.557Z,99.90
2018-03-25T04:28:32.254Z,99.90
2018-03-25T04:29:05.938Z,99.90
2018-03-25T04:29:39.634Z,99.90
2018-03-25T04:30:13.367Z,99.90
2018-03-25T04:30:47.808Z,99.90
2018-03-25T04:31:21.528Z,99.90
2018-03-25T04:31:55.216Z,99.90
2018-03-25T04:32:28.897Z,99.90
2018-03-25T04:33:02.580Z,99.90
2018-03-25T04:33:36.268Z,99.90
2018-03-25T04:34:09.939Z,99.90
2018-03-25T04:34:43.396Z,99.90
2018-03-25T04:35:17.876Z,99.90
2018-03-25T04:35:51.591Z,99.90
2018-03-25T04:36:26.030Z,99.90
2018-03-25T04:36:59.940Z,99.90
2018-03-25T04:37:33.610Z,99.90
2018-03-25T04:38:07.292Z,99.90
2018-03-25T04:38:40.976Z,99.90
2018-03-25T04:39:15.416Z,99.90
2018-03-25T04:39:49.078Z,99.90
2018-03-25T04:40:22.788Z,99.90
2018-03-25T04:40:56.462Z,99.90
2018-03-25T04:41:30.130Z,99.90
2018-03-25T04:42:04.245Z,99.90
2018-03-25T04:42:38.715Z,99.90
2018-03-25T04:43:12.402Z,99.90
2018-03-25T04:43:46.069Z,99.90
2018-03-25T04:44:19.756Z,99.90
2018-03-25T04:44:53.440Z,99.90
2018-03-25T04:45:27.141Z,99.90
2018-03-25T04:46:00.826Z,99.90
2018-03-25T04:46:34.502Z,99.90
2018-03-25T04:47:08.269Z,99.90
2018-03-25T04:47:42.716Z,99.90
2018-03-25T04:48:16.246Z,99.90
2018-03-25T04:48:50.690Z,99.90
2018-03-25T04:49:24.363Z,99.90
2018-03-25T04:49:58.050Z,99.90
2018-03-25T04:50:32.520Z,99.90
2018-03-25T04:51:06.196Z,99.90
2018-03-25T04:51:39.872Z,99.90
2018-03-25T04:52:13.554Z,99.90
2018-03-25T04:52:47.221Z,99.90
2018-03-25T04:53:21.656Z,99.90
2018-03-25T04:53:55.336Z,99.90
2018-03-25T04:54:29.234Z,99.90
2018-03-25T04:55:02.904Z,99.90
2018-03-25T04:55:37.572Z,99.90
2018-03-25T04:56:11.248Z,99.90
2018-03-25T04:56:44.933Z,99.90
2018-03-25T04:57:18.604Z,99.90
2018-03-25T04:57:52.282Z,99.90
2018-03-25T04:58:25.954Z,99.90
2018-03-25T04:59:00.390Z,99.90
2018-03-25T04:59:34.086Z,99.90
2018-03-25T05:00:07.424Z,99.90
2018-03-25T05:00:42.194Z,99.90
2018-03-25T05:01:15.948Z,99.90
2018-03-25T05:01:49.634Z,99.90
2018-03-25T05:02:23.316Z,99.90
2018-03-25T05:02:57.767Z,99.90
2018-03-25T05:03:31.476Z,99.90
2018-03-25T05:04:04.818Z,99.90
2018-03-25T05:04:38.500Z,99.90
2018-03-25T05:05:12.202Z,99.90
2018-03-25T05:05:45.918Z,99.90
2018-03-25T05:06:19.714Z,99.90
2018-03-25T05:06:53.414Z,99.90
2018-03-25T05:07:27.088Z,99.90
2018-03-25T05:08:00.766Z,99.90
2018-03-25T05:08:34.456Z,99.90
2018-03-25T05:09:08.158Z,99.90
2018-03-25T05:09:41.870Z,99.90
2018-03-25T05:10:15.547Z,99.90
2018-03-25T05:10:49.078Z,99.90
2018-03-25T05:11:23.532Z,99.90
2018-03-25T05:11:57.213Z,99.90
2018-03-25T05:12:30.895Z,99.90
2018-03-25T05:13:04.582Z,99.90
2018-03-25T05:13:38.272Z,99.90
2018-03-25T05:14:11.964Z,99.90
2018-03-25T05:14:45.642Z,99.90
2018-03-25T05:15:19.331Z,99.90
2018-03-25T05:15:53.030Z,99.90
2018-03-25T05:16:26.716Z,99.90
2018-03-25T05:17:00.393Z,99.90
2018-03-25T05:17:34.123Z,99.90
2018-03-25T05:18:07.944Z,99.90
2018-03-25T05:18:41.610Z,99.90
2018-03-25T05:19:15.303Z,99.90
2018-03-25T05:19:48.987Z,99.90
2018-03-25T05:20:23.270Z,99.90
2018-03-25T05:20:56.966Z,99.90
2018-03-25T05:21:30.649Z,99.90
2018-03-25T05:22:04.329Z,99.90
2018-03-25T05:22:38.000Z,99.90
2018-03-25T05:23:12.447Z,99.90
2018-03-25T05:23:46.118Z,99.90
2018-03-25T05:24:21.162Z,99.90
2018-03-25T05:24:54.855Z,99.90
2018-03-25T05:25:28.528Z,99.90
2018-03-25T05:26:02.244Z,99.90
2018-03-25T05:26:35.975Z,99.90
2018-03-25T05:27:09.707Z,99.90
2018-03-25T05:27:43.417Z,99.90
2018-03-25T05:28:17.208Z,99.90
2018-03-25T05:28:50.902Z,99.90
2018-03-25T05:29:24.577Z,99.90
2018-03-25T05:29:58.250Z,99.90
2018-03-25T05:30:31.930Z,99.90
2018-03-25T05:31:05.628Z,99.90
2018-03-25T05:31:39.309Z,99.90
2018-03-25T05:32:12.984Z,99.90
2018-03-25T05:32:46.658Z,99.90
2018-03-25T05:33:21.885Z,99.90
2018-03-25T05:33:56.339Z,99.90
2018-03-25T05:34:29.846Z,99.90
2018-03-25T05:35:03.528Z,99.90
2018-03-25T05:35:37.216Z,99.90
2018-03-25T05:36:11.265Z,99.90
2018-03-25T05:36:45.714Z,99.90
2018-03-25T05:37:19.417Z,99.90
2018-03-25T05:37:53.103Z,99.90
2018-03-25T05:38:26.455Z,99.90
2018-03-25T05:39:00.236Z,99.90
2018-03-25T05:39:33.910Z,99.90
2018-03-25T05:40:08.340Z,99.90
2018-03-25T05:40:42.003Z,99.90
2018-03-25T05:41:16.827Z,99.90
2018-03-25T05:41:51.268Z,99.90
2018-03-25T05:42:24.939Z,99.90
2018-03-25T05:42:58.622Z,99.90
2018-03-25T05:43:33.078Z,99.90
2018-03-25T05:44:06.769Z,99.90
2018-03-25T05:44:40.442Z,99.90
2018-03-25T05:45:14.113Z,99.90
2018-03-25T05:45:47.798Z,99.90
2018-03-25T05:46:21.529Z,99.90
2018-03-25T05:46:55.228Z,99.90
2018-03-25T05:47:28.905Z,99.90
2018-03-25T05:48:02.580Z,99.90
2018-03-25T05:48:36.252Z,99.90
2018-03-25T05:49:10.486Z,99.90
2018-03-25T05:49:44.166Z,99.90
2018-03-25T05:50:17.834Z,99.90
2018-03-25T05:50:51.700Z,99.90
2018-03-25T05:51:26.167Z,99.90
2018-03-25T05:51:59.909Z,99.90
2018-03-25T05:52:34.350Z,99.90
2018-03-25T05:53:08.021Z,99.90
2018-03-25T05:53:41.686Z,99.90
2018-03-25T05:54:16.138Z,99.90
2018-03-25T05:54:49.818Z,99.90
2018-03-25T05:55:23.496Z,99.90
2018-03-25T05:55:57.166Z,99.90
2018-03-25T05:56:31.447Z,99.90
2018-03-25T05:57:05.123Z,99.90
2018-03-25T05:57:38.855Z,99.90
2018-03-25T05:58:13.310Z,99.90
2018-03-25T05:58:46.660Z,99.90
2018-03-25T05:59:20.329Z,99.90
2018-03-25T05:59:54.762Z,99.90
2018-03-25T06:00:28.446Z,99.90
2018-03-25T06:01:02.138Z,99.90
2018-03-25T06:01:36.055Z,99.90
2018-03-25T06:02:09.725Z,99.90
2018-03-25T06:02:43.423Z,99.90
2018-03-25T06:03:17.102Z,99.90
2018-03-25T06:03:50.866Z,99.90
2018-03-25T06:04:25.340Z,99.90
2018-03-25T06:04:59.215Z,99.90
2018-03-25T06:05:32.961Z,99.90
2018-03-25T06:06:07.401Z,99.90
2018-03-25T06:06:41.102Z,99.90
2018-03-25T06:07:14.771Z,99.90
2018-03-25T06:07:48.441Z,99.90
2018-03-25T06:08:22.924Z,99.90
2018-03-25T06:08:56.602Z,99.90
2018-03-25T06:09:30.287Z,99.90
2018-03-25T06:10:03.631Z,99.90
2018-03-25T06:10:37.336Z,99.90
2018-03-25T06:11:11.025Z,99.80
2018-03-25T06:11:44.734Z,99.90
2018-03-25T06:12:18.425Z,99.90
2018-03-25T06:12:52.133Z,99.90
2018-03-25T06:13:25.806Z,99.90
2018-03-25T06:13:59.565Z,99.60
2018-03-25T06:14:33.360Z,99.90
2018-03-25T06:15:07.074Z,99.80
2018-03-25T06:15:40.766Z,99.90
2018-03-25T06:16:14.449Z,99.90
2018-03-25T06:16:48.169Z,99.90
2018-03-25T06:17:21.837Z,99.90
2018-03-25T06:17:55.525Z,99.90
2018-03-25T06:18:29.191Z,99.90
2018-03-25T06:19:02.915Z,99.80
2018-03-25T06:19:36.763Z,99.90
2018-03-25T06:20:10.430Z,99.90
2018-03-25T06:20:44.865Z,99.90
2018-03-25T06:21:18.552Z,99.90
2018-03-25T06:21:52.534Z,99.90
2018-03-25T06:22:27.079Z,99.90
2018-03-25T06:23:00.959Z,99.90
2018-03-25T06:23:34.638Z,99.90
2018-03-25T06:24:08.327Z,99.90
2018-03-25T06:24:42.019Z,99.90
2018-03-25T06:25:15.677Z,99.90
2018-03-25T06:25:49.363Z,99.90
2018-03-25T06:26:23.049Z,99.90
2018-03-25T06:26:56.762Z,99.90
2018-03-25T06:27:31.218Z,99.90
2018-03-25T06:28:04.909Z,99.90
2018-03-25T06:28:38.578Z,99.90
2018-03-25T06:29:12.265Z,99.90
2018-03-25T06:29:45.951Z,99.90
2018-03-25T06:30:19.643Z,99.90
2018-03-25T06:30:53.323Z,99.90
2018-03-25T06:31:27.795Z,99.70
2018-03-25T06:32:01.499Z,99.90
2018-03-25T06:32:35.171Z,99.90
2018-03-25T06:33:08.883Z,99.90
2018-03-25T06:33:43.327Z,99.70
2018-03-25T06:34:17.134Z,99.90
2018-03-25T06:34:50.833Z,99.90
2018-03-25T06:35:24.511Z,99.40
2018-03-25T06:35:58.191Z,99.20
2018-03-25T06:36:31.863Z,99.50
2018-03-25T06:37:05.551Z,99.20
2018-03-25T06:37:39.238Z,99.00
2018-03-25T06:38:12.933Z,99.20
2018-03-25T06:38:46.603Z,99.10
2018-03-25T06:39:21.050Z,99.40
2018-03-25T06:39:54.802Z,99.60
2018-03-25T06:40:28.637Z,99.60
2018-03-25T06:41:02.346Z,99.90
2018-03-25T06:41:36.037Z,99.30
2018-03-25T06:42:09.739Z,99.50
2018-03-25T06:42:43.434Z,99.70
2018-03-25T06:43:17.107Z,99.80
2018-03-25T06:43:50.787Z,99.90
2018-03-25T06:44:24.485Z,99.90
2018-03-25T06:44:58.164Z,99.70
2018-03-25T06:45:31.835Z,99.90
2018-03-25T06:46:05.179Z,99.90
2018-03-25T06:46:38.849Z,99.50
2018-03-25T06:47:12.583Z,99.70
2018-03-25T06:47:46.255Z,99.40
2018-03-25T06:48:20.719Z,99.90
2018-03-25T06:48:54.109Z,99.90
2018-03-25T06:49:28.710Z,99.90
2018-03-25T06:50:02.476Z,99.90
2018-03-25T06:50:36.319Z,99.90
2018-03-25T06:51:10.005Z,99.90
2018-03-25T06:51:43.681Z,99.90
2018-03-25T06:52:17.383Z,99.90
2018-03-25T06:52:51.077Z,99.90
2018-03-25T06:53:24.785Z,99.40
2018-03-25T06:53:58.489Z,99.90
2018-03-25T06:54:33.123Z,99.90
2018-03-25T06:55:06.803Z,99.90
2018-03-25T06:55:40.491Z,99.90
2018-03-25T06:56:14.181Z,99.90
2018-03-25T06:56:47.865Z,99.90
2018-03-25T06:57:21.559Z,99.90
2018-03-25T06:57:55.243Z,99.60
2018-03-25T06:58:29.699Z,99.90
2018-03-25T06:59:03.394Z,99.90
2018-03-25T06:59:37.076Z,99.60
2018-03-25T07:00:10.761Z,99.90
2018-03-25T07:00:44.446Z,99.90
2018-03-25T07:01:18.139Z,99.90
2018-03-25T07:01:51.823Z,99.90
2018-03-25T07:02:25.683Z,99.90
2018-03-25T07:03:00.255Z,99.90
2018-03-25T07:03:33.973Z,99.90
2018-03-25T07:04:08.439Z,99.80
2018-03-25T07:04:42.121Z,99.70
2018-03-25T07:05:15.801Z,99.90
2018-03-25T07:05:49.487Z,99.90
2018-03-25T07:06:23.215Z,99.40
2018-03-25T07:06:56.903Z,99.70
2018-03-25T07:07:32.115Z,99.90
2018-03-25T07:08:05.825Z,99.90
2018-03-25T07:08:39.569Z,99.70
2018-03-25T07:09:13.428Z,99.90
2018-03-25T07:09:47.869Z,99.90
2018-03-25T07:10:22.743Z,99.40
2018-03-25T07:10:57.187Z,99.60
2018-03-25T07:11:30.866Z,99.60
2018-03-25T07:12:05.318Z,99.70
2018-03-25T07:12:38.893Z,99.90
2018-03-25T07:13:12.718Z,99.90
2018-03-25T07:13:46.419Z,99.90
2018-03-25T07:14:20.121Z,99.90
2018-03-25T07:14:54.563Z,99.90
2018-03-25T07:15:28.268Z,99.90